createdAt,value
2023-05-24T00:00:44.985Z,80.32
2023-05-24T00:01:44.966Z,80.29
2023-05-24T00:02:45.033Z,80.36
2023-05-24T00:03:45.126Z,79.64
2023-05-24T00:04:44.968Z,79.94
2023-05-24T00:05:44.967Z,79.92
2023-05-24T00:06:44.902Z,80.51
2023-05-24T00:07:44.925Z,79.58
2023-05-24T00:08:44.926Z,78.33
2023-05-24T00:09:44.911Z,78.80
2023-05-24T00:10:44.970Z,79.68
2023-05-24T00:11:44.904Z,79.65
2023-05-24T00:12:44.865Z,79.92
2023-05-24T00:13:44.901Z,79.95
2023-05-24T00:14:44.867Z,80.08
2023-05-24T00:15:44.877Z,79.83
2023-05-24T00:16:44.850Z,79.65
2023-05-24T00:17:44.910Z,79.33
2023-05-24T00:18:44.842Z,80.39
2023-05-24T00:19:44.887Z,80.48
2023-05-24T00:20:45.218Z,80.28
2023-05-24T00:21:44.814Z,80.16
2023-05-24T00:22:44.811Z,79.58
2023-05-24T00:23:44.818Z,78.94
2023-05-24T00:24:44.849Z,79.31
2023-05-24T00:25:44.833Z,79.96
2023-05-24T00:26:44.849Z,80.19
2023-05-24T00:27:44.788Z,79.66
2023-05-24T00:28:44.774Z,79.60
2023-05-24T00:29:44.793Z,79.71
2023-05-24T00:30:44.919Z,79.26
2023-05-24T00:31:44.808Z,79.19
2023-05-24T00:32:44.790Z,79.45
2023-05-24T00:33:44.739Z,80.16
2023-05-24T00:34:44.723Z,80.39
2023-05-24T00:35:44.777Z,79.80
2023-05-24T00:36:44.782Z,78.72
2023-05-24T00:37:44.717Z,79.47
2023-05-24T00:38:44.766Z,79.44
2023-05-24T00:39:44.836Z,79.42
2023-05-24T00:40:44.826Z,80.01
2023-05-24T00:41:44.868Z,80.54
2023-05-24T00:42:44.861Z,80.42
2023-05-24T00:43:44.901Z,79.67
2023-05-24T00:44:44.898Z,80.02
2023-05-24T00:45:44.985Z,79.67
2023-05-24T00:46:44.974Z,80.26
2023-05-24T00:47:45.028Z,80.18
2023-05-24T00:48:44.988Z,80.17
2023-05-24T00:49:45.029Z,80.43
2023-05-24T00:50:45.112Z,80.31
2023-05-24T00:51:45.142Z,80.37
2023-05-24T00:52:45.208Z,80.74
2023-05-24T00:53:45.182Z,80.74
2023-05-24T00:54:45.289Z,81.01
2023-05-24T00:55:45.345Z,80.25
2023-05-24T00:56:45.370Z,80.56
2023-05-24T00:57:45.431Z,80.60
2023-05-24T00:58:45.408Z,80.80
2023-05-24T00:59:45.431Z,81.20
2023-05-24T01:00:45.551Z,80.97
2023-05-24T01:01:45.596Z,81.07
2023-05-24T01:02:45.692Z,80.56
2023-05-24T01:03:45.667Z,80.15
2023-05-24T01:04:45.632Z,80.39
2023-05-24T01:05:45.711Z,80.61
2023-05-24T01:06:45.710Z,80.48
2023-05-24T01:07:45.721Z,80.76
2023-05-24T01:08:45.753Z,80.78
2023-05-24T01:09:45.769Z,81.31
2023-05-24T01:10:45.820Z,81.08
2023-05-24T01:11:45.809Z,80.88
2023-05-24T01:12:45.881Z,80.84
2023-05-24T01:13:45.891Z,80.59
2023-05-24T01:14:45.895Z,80.76
2023-05-24T01:15:46.018Z,80.53
2023-05-24T01:16:45.962Z,80.81
2023-05-24T01:17:46.037Z,80.38
2023-05-24T01:18:46.066Z,80.29
2023-05-24T01:19:46.080Z,80.54
2023-05-24T01:20:46.268Z,80.41
2023-05-24T01:21:46.163Z,80.82
2023-05-24T01:22:46.198Z,80.68
2023-05-24T01:23:46.164Z,80.92
2023-05-24T01:24:46.278Z,81.36
2023-05-24T01:25:46.287Z,81.55
2023-05-24T01:26:46.265Z,81.42
2023-05-24T01:27:46.299Z,81.56
2023-05-24T01:28:46.337Z,81.70
2023-05-24T01:29:46.361Z,81.78
2023-05-24T01:30:46.419Z,81.45
2023-05-24T01:31:46.646Z,81.11
2023-05-24T01:32:46.559Z,80.65
2023-05-24T01:33:46.544Z,80.39
2023-05-24T01:34:46.544Z,80.37
2023-05-24T01:35:46.622Z,80.20
2023-05-24T01:36:46.606Z,80.10
2023-05-24T01:37:46.611Z,79.90
2023-05-24T01:38:46.646Z,80.18
2023-05-24T01:39:46.684Z,79.93
2023-05-24T01:40:46.694Z,79.68
2023-05-24T01:41:46.651Z,79.21
2023-05-24T01:42:46.703Z,79.42
2023-05-24T01:43:46.720Z,79.07
2023-05-24T01:44:46.771Z,79.26
2023-05-24T01:45:46.817Z,79.45
2023-05-24T01:46:46.844Z,79.07
2023-05-24T01:47:46.971Z,79.01
2023-05-24T01:48:46.907Z,78.84
2023-05-24T01:49:46.923Z,78.80
2023-05-24T01:50:47.018Z,78.60
2023-05-24T01:51:47.043Z,78.55
2023-05-24T01:52:47.076Z,78.44
2023-05-24T01:53:47.170Z,78.39
2023-05-24T01:54:47.147Z,78.43
2023-05-24T01:55:47.139Z,78.77
2023-05-24T01:56:47.201Z,78.49
2023-05-24T01:57:47.204Z,78.19
2023-05-24T01:58:47.279Z,78.00
2023-05-24T01:59:47.338Z,78.12
2023-05-24T02:00:47.426Z,78.03
2023-05-24T02:01:47.450Z,78.43
2023-05-24T02:02:47.563Z,78.14
2023-05-24T02:03:47.520Z,77.82
2023-05-24T02:04:47.544Z,77.52
2023-05-24T02:05:47.580Z,77.60
2023-05-24T02:06:47.605Z,77.55
2023-05-24T02:07:47.573Z,77.56
2023-05-24T02:08:47.690Z,77.95
2023-05-24T02:09:47.663Z,77.66
2023-05-24T02:10:47.717Z,77.78
2023-05-24T02:11:47.714Z,77.72
2023-05-24T02:12:47.811Z,77.58
2023-05-24T02:13:47.800Z,77.95
2023-05-24T02:14:47.868Z,78.22
2023-05-24T02:15:47.994Z,77.80
2023-05-24T02:16:47.952Z,77.53
2023-05-24T02:17:47.964Z,77.69
2023-05-24T02:18:47.954Z,78.63
2023-05-24T02:19:48.020Z,78.97
2023-05-24T02:20:48.053Z,78.40
2023-05-24T02:21:48.052Z,78.37
2023-05-24T02:22:48.042Z,78.40
2023-05-24T02:23:48.106Z,78.17
2023-05-24T02:24:48.128Z,78.34
2023-05-24T02:25:48.211Z,78.36
2023-05-24T02:26:48.188Z,78.18
2023-05-24T02:27:48.242Z,78.07
2023-05-24T02:28:48.392Z,78.48
2023-05-24T02:29:48.466Z,78.16
2023-05-24T02:30:48.443Z,77.79
2023-05-24T02:31:48.429Z,77.83
2023-05-24T02:32:48.521Z,77.86
2023-05-24T02:33:48.502Z,77.72
2023-05-24T02:34:48.543Z,78.03
2023-05-24T02:35:48.598Z,78.11
2023-05-24T02:36:48.577Z,77.94
2023-05-24T02:37:48.652Z,77.79
2023-05-24T02:38:48.713Z,77.88
2023-05-24T02:39:48.723Z,78.19
2023-05-24T02:40:48.727Z,78.03
2023-05-24T02:41:48.770Z,77.74
2023-05-24T02:42:48.758Z,77.63
2023-05-24T02:43:48.780Z,77.75
2023-05-24T02:44:48.810Z,77.97
2023-05-24T02:45:48.927Z,78.19
2023-05-24T02:46:48.939Z,77.75
2023-05-24T02:47:49.028Z,77.74
2023-05-24T02:48:48.974Z,77.92
2023-05-24T02:49:49.668Z,78.57
2023-05-24T02:50:49.042Z,78.43
2023-05-24T02:51:49.002Z,78.14
2023-05-24T02:52:49.041Z,77.83
2023-05-24T02:53:49.056Z,78.77
2023-05-24T02:54:49.113Z,78.81
2023-05-24T02:55:49.096Z,78.40
2023-05-24T02:56:49.097Z,78.22
2023-05-24T02:57:49.180Z,78.97
2023-05-24T02:58:49.208Z,79.00
2023-05-24T02:59:49.269Z,78.89
2023-05-24T03:00:49.277Z,79.35
2023-05-24T03:01:49.321Z,79.22
2023-05-24T03:02:49.424Z,79.07
2023-05-24T03:03:49.410Z,78.78
2023-05-24T03:04:49.328Z,78.68
2023-05-24T03:05:49.386Z,78.53
2023-05-24T03:06:49.399Z,78.92
2023-05-24T03:07:49.466Z,79.12
2023-05-24T03:08:49.473Z,79.25
2023-05-24T03:09:49.535Z,79.41
2023-05-24T03:10:49.542Z,79.43
2023-05-24T03:11:49.577Z,79.08
2023-05-24T03:12:49.640Z,79.05
2023-05-24T03:13:49.651Z,78.74
2023-05-24T03:14:49.698Z,78.61
2023-05-24T03:15:49.838Z,78.63
2023-05-24T03:16:49.690Z,78.50
2023-05-24T03:17:49.745Z,78.33
2023-05-24T03:18:49.792Z,78.29
2023-05-24T03:19:49.848Z,78.33
2023-05-24T03:20:49.863Z,78.43
2023-05-24T03:21:49.859Z,78.44
2023-05-24T03:22:49.872Z,78.52
2023-05-24T03:23:49.870Z,78.33
2023-05-24T03:24:49.906Z,78.14
2023-05-24T03:25:49.939Z,77.92
2023-05-24T03:26:49.944Z,77.58
2023-05-24T03:27:49.986Z,77.52
2023-05-24T03:28:50.031Z,77.32
2023-05-24T03:29:50.062Z,77.61
2023-05-24T03:30:50.084Z,78.23
2023-05-24T03:31:50.191Z,78.62
2023-05-24T03:32:50.184Z,78.32
2023-05-24T03:33:50.208Z,78.47
2023-05-24T03:34:50.227Z,78.96
2023-05-24T03:35:50.336Z,79.20
2023-05-24T03:36:50.333Z,78.46
2023-05-24T03:37:50.397Z,78.59
2023-05-24T03:38:50.432Z,79.31
2023-05-24T03:39:50.428Z,79.91
2023-05-24T03:40:50.451Z,80.36
2023-05-24T03:41:50.527Z,79.47
2023-05-24T03:42:50.522Z,79.90
2023-05-24T03:43:50.596Z,80.22
2023-05-24T03:44:50.582Z,80.70
2023-05-24T03:45:50.626Z,80.93
2023-05-24T03:46:50.718Z,81.17
2023-05-24T03:47:50.763Z,81.17
2023-05-24T03:48:50.749Z,81.24
2023-05-24T03:49:50.724Z,81.58
2023-05-24T03:50:50.790Z,81.84
2023-05-24T03:51:50.763Z,82.10
2023-05-24T03:52:50.775Z,82.34
2023-05-24T03:53:50.809Z,82.30
2023-05-24T03:54:50.868Z,82.44
2023-05-24T03:55:50.895Z,82.56
2023-05-24T03:56:50.901Z,82.53
2023-05-24T03:57:50.933Z,82.67
2023-05-24T03:58:50.932Z,82.05
2023-05-24T03:59:50.965Z,81.77
2023-05-24T04:00:50.946Z,81.88
2023-05-24T04:01:50.968Z,81.70
2023-05-24T04:02:51.082Z,81.05
2023-05-24T04:03:51.113Z,80.82
2023-05-24T04:04:51.036Z,80.91
2023-05-24T04:05:51.041Z,81.01
2023-05-24T04:06:51.082Z,81.21
2023-05-24T04:07:51.083Z,81.83
2023-05-24T04:08:51.086Z,82.40
2023-05-24T04:09:51.157Z,82.67
2023-05-24T04:10:51.170Z,82.65
2023-05-24T04:11:51.202Z,82.91
2023-05-24T04:12:51.242Z,83.04
2023-05-24T04:13:51.235Z,82.81
2023-05-24T04:14:51.261Z,82.59
2023-05-24T04:15:51.305Z,81.57
2023-05-24T04:16:51.333Z,81.86
2023-05-24T04:17:51.384Z,82.26
2023-05-24T04:18:51.522Z,82.65
2023-05-24T04:19:51.470Z,82.56
2023-05-24T04:20:51.400Z,82.87
2023-05-24T04:21:51.404Z,82.75
2023-05-24T04:22:51.431Z,83.01
2023-05-24T04:23:51.502Z,82.64
2023-05-24T04:24:51.602Z,82.74
2023-05-24T04:25:51.579Z,83.06
2023-05-24T04:26:51.607Z,82.85
2023-05-24T04:27:51.615Z,83.32
2023-05-24T04:28:51.679Z,83.89
2023-05-24T04:29:51.642Z,83.96
2023-05-24T04:30:51.716Z,83.91
2023-05-24T04:31:51.964Z,83.65
2023-05-24T04:32:51.765Z,83.52
2023-05-24T04:33:51.810Z,83.13
2023-05-24T04:34:51.842Z,83.27
2023-05-24T04:35:51.844Z,83.61
2023-05-24T04:36:51.898Z,82.61
2023-05-24T04:37:51.930Z,83.35
2023-05-24T04:38:51.944Z,83.00
2023-05-24T04:39:51.991Z,82.93
2023-05-24T04:40:51.990Z,82.15
2023-05-24T04:41:52.011Z,82.64
2023-05-24T04:42:52.053Z,82.70
2023-05-24T04:43:52.108Z,82.76
2023-05-24T04:44:52.121Z,82.69
2023-05-24T04:45:52.252Z,82.62
2023-05-24T04:46:52.258Z,82.47
2023-05-24T04:47:52.306Z,82.45
2023-05-24T04:48:52.322Z,82.48
2023-05-24T04:49:52.320Z,81.96
2023-05-24T04:50:52.326Z,82.15
2023-05-24T04:51:54.587Z,81.92
2023-05-24T04:52:52.331Z,81.72
2023-05-24T04:53:52.335Z,81.72
2023-05-24T04:54:52.354Z,82.24
2023-05-24T04:55:52.361Z,82.14
2023-05-24T04:56:52.328Z,81.81
2023-05-24T04:57:52.324Z,81.37
2023-05-24T04:58:52.341Z,81.15
2023-05-24T04:59:52.349Z,81.20
2023-05-24T05:00:52.346Z,81.37
2023-05-24T05:01:52.351Z,81.17
2023-05-24T05:02:52.504Z,80.65
2023-05-24T05:03:52.355Z,80.55
2023-05-24T05:04:52.266Z,80.25
2023-05-24T05:05:52.275Z,79.87
2023-05-24T05:06:52.268Z,80.63
2023-05-24T05:07:52.286Z,80.74
2023-05-24T05:08:52.237Z,80.91
2023-05-24T05:09:52.257Z,81.05
2023-05-24T05:10:52.255Z,81.42
2023-05-24T05:11:52.198Z,81.64
2023-05-24T05:12:52.201Z,81.86
2023-05-24T05:13:52.219Z,82.05
2023-05-24T05:14:52.237Z,82.23
2023-05-24T05:15:52.211Z,81.88
2023-05-24T05:16:52.187Z,81.90
2023-05-24T05:17:52.198Z,81.74
2023-05-24T05:18:52.161Z,81.85
2023-05-24T05:19:52.248Z,81.87
2023-05-24T05:20:52.196Z,81.62
2023-05-24T05:21:52.166Z,81.99
2023-05-24T05:22:52.158Z,82.35
2023-05-24T05:23:52.169Z,82.41
2023-05-24T05:24:52.118Z,82.30
2023-05-24T05:25:52.134Z,82.15
2023-05-24T05:26:52.100Z,81.91
2023-05-24T05:27:52.114Z,81.65
2023-05-24T05:28:52.120Z,81.54
2023-05-24T05:29:52.147Z,81.61
2023-05-24T05:30:52.098Z,81.73
2023-05-24T05:31:52.126Z,82.42
2023-05-24T05:32:52.203Z,81.95
2023-05-24T05:33:52.044Z,81.60
2023-05-24T05:34:52.077Z,81.31
2023-05-24T05:35:54.737Z,80.92
2023-05-24T05:36:52.076Z,81.02
2023-05-24T05:37:52.027Z,80.64
2023-05-24T05:38:52.074Z,79.79
2023-05-24T05:39:52.046Z,80.01
2023-05-24T05:40:52.068Z,80.04
2023-05-24T05:41:52.039Z,79.89
2023-05-24T05:42:52.016Z,79.49
2023-05-24T05:43:52.008Z,79.22
2023-05-24T05:44:52.019Z,79.10
2023-05-24T05:45:52.033Z,79.61
2023-05-24T05:46:52.016Z,80.54
2023-05-24T05:47:52.116Z,80.04
2023-05-24T05:48:52.081Z,80.22
2023-05-24T05:49:51.981Z,79.90
2023-05-24T05:50:51.981Z,80.08
2023-05-24T05:51:51.966Z,80.14
2023-05-24T05:52:51.979Z,81.12
2023-05-24T05:53:51.995Z,81.44
2023-05-24T05:54:51.998Z,80.87
2023-05-24T05:55:52.058Z,81.02
2023-05-24T05:56:51.919Z,81.39
2023-05-24T05:57:51.911Z,81.59
2023-05-24T05:58:51.870Z,81.15
2023-05-24T05:59:52.095Z,81.26
2023-05-24T06:00:51.937Z,81.04
2023-05-24T06:01:51.953Z,80.99
2023-05-24T06:02:52.047Z,81.03
2023-05-24T06:03:52.373Z,80.98
2023-05-24T06:04:51.936Z,80.29
2023-05-24T06:05:51.937Z,80.11
2023-05-24T06:06:51.988Z,79.99
2023-05-24T06:07:51.891Z,79.90
2023-05-24T06:08:51.813Z,79.51
2023-05-24T06:09:51.837Z,79.76
2023-05-24T06:10:53.095Z,79.84
2023-05-24T06:11:51.869Z,79.14
2023-05-24T06:12:51.832Z,78.99
2023-05-24T06:13:51.830Z,79.29
2023-05-24T06:14:52.117Z,79.28
2023-05-24T06:15:51.862Z,80.04
2023-05-24T06:16:51.860Z,80.41
2023-05-24T06:17:51.872Z,80.21
2023-05-24T06:19:04.547Z,80.79
2023-05-24T06:19:52.781Z,80.97
2023-05-24T06:20:53.063Z,81.08
2023-05-24T06:21:51.868Z,81.17
2023-05-24T06:22:51.771Z,81.10
2023-05-24T06:23:51.739Z,81.09
2023-05-24T06:24:51.742Z,81.24
2023-05-24T06:25:51.800Z,81.20
2023-05-24T06:26:51.724Z,80.72
2023-05-24T06:27:51.731Z,80.40
2023-05-24T06:28:51.682Z,79.94
2023-05-24T06:29:51.742Z,80.32
2023-05-24T06:30:51.792Z,80.07
2023-05-24T06:31:52.160Z,79.76
2023-05-24T06:32:51.810Z,79.46
2023-05-24T06:34:02.414Z,79.47
2023-05-24T06:34:52.786Z,79.72
2023-05-24T06:35:51.788Z,79.98
2023-05-24T06:36:51.904Z,79.45
2023-05-24T06:37:51.732Z,79.45
2023-05-24T06:38:51.738Z,78.23
2023-05-24T06:39:51.724Z,78.99
2023-05-24T06:40:51.698Z,78.84
2023-05-24T06:41:51.811Z,78.37
2023-05-24T06:42:51.714Z,78.75
2023-05-24T06:43:51.721Z,78.61
2023-05-24T06:44:51.736Z,78.57
2023-05-24T06:45:51.678Z,78.25
2023-05-24T06:46:51.838Z,77.28
2023-05-24T06:47:53.169Z,77.66
2023-05-24T06:48:51.875Z,77.78
2023-05-24T06:49:51.899Z,77.80
2023-05-24T06:50:51.870Z,77.17
2023-05-24T06:51:51.873Z,77.35
2023-05-24T06:52:51.878Z,77.67
2023-05-24T06:53:51.890Z,77.95
2023-05-24T06:54:51.939Z,77.91
2023-05-24T06:55:52.020Z,78.26
2023-05-24T06:56:52.015Z,78.16
2023-05-24T06:57:52.036Z,77.81
2023-05-24T06:58:52.032Z,78.09
2023-05-24T06:59:52.129Z,78.37
2023-05-24T07:00:52.174Z,77.97
2023-05-24T07:01:52.203Z,78.07
2023-05-24T07:02:52.192Z,77.59
2023-05-24T07:03:52.209Z,77.01
2023-05-24T07:04:52.256Z,76.82
2023-05-24T07:05:52.266Z,76.48
2023-05-24T07:06:52.294Z,76.15
2023-05-24T07:07:53.584Z,76.29
2023-05-24T07:08:52.361Z,75.70
2023-05-24T07:09:52.419Z,76.20
2023-05-24T07:10:52.399Z,75.05
2023-05-24T07:11:52.429Z,74.53
2023-05-24T07:12:52.447Z,75.22
2023-05-24T07:13:52.476Z,75.84
2023-05-24T07:14:52.483Z,75.48
2023-05-24T07:15:52.513Z,74.84
2023-05-24T07:16:52.570Z,74.35
2023-05-24T07:17:52.767Z,75.30
2023-05-24T07:18:52.611Z,76.04
2023-05-24T07:19:52.729Z,76.03
2023-05-24T07:20:52.767Z,75.84
2023-05-24T07:21:52.748Z,75.61
2023-05-24T07:22:52.746Z,74.85
2023-05-24T07:23:52.814Z,75.07
2023-05-24T07:24:52.813Z,75.73
2023-05-24T07:25:52.862Z,75.62
2023-05-24T07:26:52.916Z,74.64
2023-05-24T07:27:52.928Z,75.11
2023-05-24T07:28:52.946Z,74.58
2023-05-24T07:29:53.033Z,75.39
2023-05-24T07:30:53.301Z,75.29
2023-05-24T07:31:53.087Z,75.18
2023-05-24T07:32:53.394Z,74.71
2023-05-24T07:33:53.081Z,74.58
2023-05-24T07:34:53.095Z,74.79
2023-05-24T07:35:53.090Z,74.57
2023-05-24T07:36:53.144Z,73.78
2023-05-24T07:37:53.194Z,73.31
2023-05-24T07:38:53.229Z,73.16
2023-05-24T07:39:53.229Z,73.63
2023-05-24T07:40:53.265Z,73.05
2023-05-24T07:41:53.448Z,73.21
2023-05-24T07:42:53.349Z,73.85
2023-05-24T07:43:53.354Z,73.44
2023-05-24T07:44:53.416Z,73.19
2023-05-24T07:45:53.428Z,73.27
2023-05-24T07:46:53.509Z,73.74
2023-05-24T07:47:56.021Z,74.52
2023-05-24T07:48:53.486Z,74.88
2023-05-24T07:49:53.473Z,73.41
2023-05-24T07:50:53.477Z,72.48
2023-05-24T07:51:53.707Z,72.17
2023-05-24T07:52:53.405Z,72.10
2023-05-24T07:53:53.421Z,69.74
2023-05-24T07:54:53.395Z,70.19
2023-05-24T07:55:53.427Z,71.13
2023-05-24T07:56:53.425Z,71.03
2023-05-24T07:57:53.413Z,70.94
2023-05-24T07:58:53.365Z,70.66
2023-05-24T07:59:53.370Z,70.32
2023-05-24T08:00:53.592Z,69.40
2023-05-24T08:01:53.488Z,70.01
2023-05-24T08:02:53.422Z,70.12
2023-05-24T08:03:53.525Z,69.94
2023-05-24T08:04:53.351Z,69.93
2023-05-24T08:05:53.355Z,70.01
2023-05-24T08:06:54.232Z,69.42
2023-05-24T08:07:53.578Z,69.78
2023-05-24T08:08:53.285Z,69.52
2023-05-24T08:09:53.291Z,68.36
2023-05-24T08:10:53.297Z,68.57
2023-05-24T08:11:53.310Z,68.70
2023-05-24T08:12:53.261Z,68.35
2023-05-24T08:13:53.281Z,67.51
2023-05-24T08:14:53.323Z,67.15
2023-05-24T08:15:53.268Z,68.96
2023-05-24T08:16:53.307Z,69.89
2023-05-24T08:17:53.272Z,70.47
2023-05-24T08:18:55.122Z,70.90
2023-05-24T08:19:53.310Z,70.56
2023-05-24T08:20:53.216Z,70.55
2023-05-24T08:21:53.274Z,69.82
2023-05-24T08:22:53.207Z,69.80
2023-05-24T08:23:53.264Z,68.53
2023-05-24T08:24:53.279Z,68.44
2023-05-24T08:25:53.249Z,68.53
2023-05-24T08:26:53.326Z,68.27
2023-05-24T08:27:53.357Z,67.98
2023-05-24T08:28:53.389Z,66.46
2023-05-24T08:29:55.481Z,67.02
2023-05-24T08:30:53.406Z,66.30
2023-05-24T08:31:53.543Z,66.49
2023-05-24T08:32:53.468Z,66.04
2023-05-24T08:33:53.362Z,65.93
2023-05-24T08:35:00.337Z,66.44
2023-05-24T08:35:54.409Z,66.50
2023-05-24T08:36:53.406Z,66.96
2023-05-24T08:37:53.370Z,67.16
2023-05-24T08:38:53.386Z,67.08
2023-05-24T08:39:53.354Z,67.51
2023-05-24T08:40:53.497Z,67.47
2023-05-24T08:42:07.894Z,66.63
2023-05-24T08:42:54.381Z,66.71
2023-05-24T08:43:53.474Z,67.23
2023-05-24T08:44:53.286Z,67.30
2023-05-24T08:45:53.384Z,67.76
2023-05-24T08:46:53.420Z,67.64
2023-05-24T08:47:53.434Z,67.77
2023-05-24T08:48:53.346Z,67.76
2023-05-24T08:49:53.393Z,68.55
2023-05-24T08:52:12.526Z,66.47
2023-05-24T08:53:12.603Z,67.15
2023-05-24T08:54:12.600Z,67.15
2023-05-24T08:55:12.639Z,67.60
2023-05-24T08:56:12.700Z,68.05
2023-05-24T08:57:12.694Z,67.62
2023-05-24T08:58:12.665Z,67.22
2023-05-24T08:59:12.693Z,66.82
2023-05-24T09:00:12.912Z,66.47
2023-05-24T09:02:32.006Z,67.27
2023-05-24T09:03:32.175Z,67.44
2023-05-24T09:04:32.070Z,66.31
2023-05-24T09:05:32.217Z,67.05
2023-05-24T09:06:32.614Z,67.29
2023-05-24T09:07:33.229Z,67.81
2023-05-24T09:08:32.214Z,68.01
2023-05-24T09:09:32.330Z,68.50
2023-05-24T09:10:44.761Z,68.19
2023-05-24T09:11:33.235Z,67.06
2023-05-24T09:12:38.125Z,67.82
2023-05-24T09:13:33.318Z,66.78
2023-05-24T09:14:32.199Z,67.31
2023-05-24T09:15:32.216Z,66.71
2023-05-24T09:16:32.268Z,66.44
2023-05-24T09:17:33.589Z,65.93
2023-05-24T09:18:32.237Z,66.10
2023-05-24T09:19:32.179Z,65.89
2023-05-24T09:20:32.182Z,66.13
2023-05-24T09:22:51.333Z,64.38
2023-05-24T09:23:51.364Z,63.62
2023-05-24T09:24:51.374Z,64.11
2023-05-24T09:25:51.490Z,63.55
2023-05-24T09:26:51.441Z,64.31
2023-05-24T09:27:51.419Z,64.53
2023-05-24T09:28:51.403Z,63.78
2023-05-24T09:29:51.395Z,63.69
2023-05-24T09:30:51.404Z,61.99
2023-05-24T09:31:51.466Z,62.45
2023-05-24T09:32:51.418Z,61.62
2023-05-24T09:33:51.412Z,60.05
2023-05-24T09:34:51.401Z,58.98
2023-05-24T09:35:51.324Z,59.65
2023-05-24T09:36:51.447Z,60.09
2023-05-24T09:37:51.347Z,58.64
2023-05-24T09:38:51.420Z,58.00
2023-05-24T09:39:51.372Z,58.42
2023-05-24T09:40:51.366Z,59.15
2023-05-24T09:41:51.325Z,59.13
2023-05-24T09:42:51.392Z,58.08
2023-05-24T09:43:51.282Z,58.12
2023-05-24T09:44:51.397Z,59.09
2023-05-24T09:45:51.263Z,59.20
2023-05-24T09:46:51.482Z,59.17
2023-05-24T09:47:51.257Z,59.28
2023-05-24T09:48:51.274Z,59.59
2023-05-24T09:49:51.240Z,59.00
2023-05-24T09:50:51.231Z,58.31
2023-05-24T09:51:51.341Z,58.94
2023-05-24T09:52:51.229Z,58.39
2023-05-24T09:53:51.193Z,57.96
2023-05-24T09:54:51.240Z,57.58
2023-05-24T09:55:51.202Z,57.22
2023-05-24T09:56:51.632Z,57.47
2023-05-24T09:57:51.190Z,57.65
2023-05-24T09:58:51.194Z,56.43
2023-05-24T09:59:51.194Z,56.41
2023-05-24T10:00:51.252Z,56.17
2023-05-24T10:01:51.352Z,56.21
2023-05-24T10:03:52.243Z,57.16
2023-05-24T10:04:51.269Z,56.61
2023-05-24T10:05:51.152Z,56.74
2023-05-24T10:06:51.157Z,57.53
2023-05-24T10:07:51.151Z,57.31
2023-05-24T10:08:51.137Z,57.05
2023-05-24T10:09:51.092Z,57.15
2023-05-24T10:10:51.085Z,57.37
2023-05-24T10:11:51.126Z,57.38
2023-05-24T10:12:51.096Z,58.16
2023-05-24T10:13:51.101Z,58.02
2023-05-24T10:14:51.104Z,57.99
2023-05-24T10:15:51.088Z,58.35
2023-05-24T10:16:51.093Z,58.29
2023-05-24T10:17:51.121Z,58.55
2023-05-24T10:18:51.063Z,58.85
2023-05-24T10:19:51.217Z,58.63
2023-05-24T10:20:51.621Z,58.28
2023-05-24T10:21:51.312Z,58.70
2023-05-24T10:22:51.315Z,59.02
2023-05-24T10:23:51.273Z,58.62
2023-05-24T10:24:51.352Z,58.82
2023-05-24T10:25:51.348Z,59.56
2023-05-24T10:26:51.424Z,58.55
2023-05-24T10:27:51.392Z,58.73
2023-05-24T10:28:51.440Z,59.07
2023-05-24T10:29:51.513Z,58.49
2023-05-24T10:31:02.636Z,58.86
2023-05-24T10:31:51.570Z,59.85
2023-05-24T10:32:51.563Z,59.33
2023-05-24T10:33:51.520Z,59.38
2023-05-24T10:34:51.539Z,59.24
2023-05-24T10:35:51.560Z,59.78
2023-05-24T10:36:51.568Z,60.07
2023-05-24T10:37:51.570Z,59.94
2023-05-24T10:38:51.611Z,60.44
2023-05-24T10:39:51.661Z,60.63
2023-05-24T10:40:52.038Z,60.32
2023-05-24T10:41:46.184Z,57.43
2023-05-24T10:41:51.682Z,60.30
2023-05-24T10:42:51.708Z,59.38
2023-05-24T10:44:07.949Z,60.15
2023-05-24T10:44:52.689Z,59.87
2023-05-24T10:45:51.791Z,59.78
2023-05-24T10:46:51.761Z,59.07
2023-05-24T10:47:51.721Z,59.08
2023-05-24T10:48:51.681Z,58.51
2023-05-24T10:49:51.660Z,59.24
2023-05-24T10:50:51.702Z,59.51
2023-05-24T10:51:51.636Z,60.54
2023-05-24T10:52:51.615Z,60.73
2023-05-24T10:53:51.613Z,60.34
2023-05-24T10:55:03.421Z,60.48
2023-05-24T10:55:52.624Z,60.77
2023-05-24T10:56:51.649Z,60.59
2023-05-24T10:57:51.747Z,60.14
2023-05-24T10:58:51.606Z,60.69
2023-05-24T10:59:51.605Z,61.24
2023-05-24T11:00:51.716Z,60.53
2023-05-24T11:01:51.624Z,61.05
2023-05-24T11:02:51.578Z,61.16
2023-05-24T11:03:51.554Z,61.54
2023-05-24T11:04:51.770Z,61.42
2023-05-24T11:05:51.678Z,61.75
2023-05-24T11:06:51.580Z,62.27
2023-05-24T11:07:51.533Z,61.48
2023-05-24T11:08:51.542Z,61.37
2023-05-24T11:09:51.601Z,61.74
2023-05-24T11:10:51.574Z,61.65
2023-05-24T11:11:59.184Z,61.75
2023-05-24T11:12:51.560Z,62.09
2023-05-24T11:13:51.523Z,62.22
2023-05-24T11:14:51.544Z,61.60
2023-05-24T11:15:51.561Z,61.54
2023-05-24T11:16:51.793Z,62.13
2023-05-24T11:17:51.579Z,62.20
2023-05-24T11:18:51.602Z,62.37
2023-05-24T11:19:51.555Z,62.34
2023-05-24T11:20:51.627Z,62.06
2023-05-24T11:21:51.513Z,62.36
2023-05-24T11:22:51.454Z,62.44
2023-05-24T11:23:51.494Z,63.37
2023-05-24T11:24:51.443Z,63.66
2023-05-24T11:25:51.457Z,63.67
2023-05-24T11:26:51.587Z,63.93
2023-05-24T11:27:51.512Z,64.19
2023-05-24T11:28:51.413Z,64.29
2023-05-24T11:29:51.436Z,64.52
2023-05-24T11:30:51.398Z,65.46
2023-05-24T11:31:51.529Z,65.41
2023-05-24T11:32:51.427Z,66.01
2023-05-24T11:33:51.386Z,65.73
2023-05-24T11:34:51.418Z,65.30
2023-05-24T11:35:51.407Z,65.21
2023-05-24T11:36:51.366Z,65.27
2023-05-24T11:37:51.399Z,65.63
2023-05-24T11:38:51.377Z,65.61
2023-05-24T11:39:51.508Z,65.86
2023-05-24T11:40:51.412Z,66.62
2023-05-24T11:41:51.435Z,66.12
2023-05-24T11:42:51.424Z,66.83
2023-05-24T11:43:51.469Z,67.46
2023-05-24T11:44:51.521Z,69.43
2023-05-24T11:45:51.635Z,70.15
2023-05-24T11:46:51.651Z,70.48
2023-05-24T11:47:51.691Z,70.93
2023-05-24T11:48:51.723Z,71.50
2023-05-24T11:49:51.867Z,72.11
2023-05-24T11:50:52.053Z,72.82
2023-05-24T11:51:51.870Z,73.97
2023-05-24T11:52:51.932Z,73.98
2023-05-24T11:53:54.456Z,74.05
2023-05-24T11:54:51.893Z,73.69
2023-05-24T11:55:51.867Z,73.34
2023-05-24T11:56:51.896Z,73.89
2023-05-24T11:57:51.886Z,73.00
2023-05-24T11:58:51.872Z,72.98
2023-05-24T11:59:51.840Z,73.61
2023-05-24T12:00:51.821Z,75.49
2023-05-24T12:01:51.907Z,76.11
2023-05-24T12:02:54.565Z,76.48
2023-05-24T12:03:51.953Z,76.96
2023-05-24T12:04:51.867Z,77.54
2023-05-24T12:05:51.826Z,77.35
2023-05-24T12:06:51.835Z,78.17
2023-05-24T12:07:51.798Z,77.34
2023-05-24T12:08:51.773Z,75.99
2023-05-24T12:09:51.796Z,77.31
2023-05-24T12:10:51.829Z,78.17
2023-05-24T12:11:52.304Z,78.76
2023-05-24T12:12:51.777Z,78.33
2023-05-24T12:13:51.712Z,78.14
2023-05-24T12:14:51.749Z,78.17
2023-05-24T12:15:54.059Z,77.27
2023-05-24T12:16:51.743Z,76.31
2023-05-24T12:17:51.757Z,76.68
2023-05-24T12:19:03.690Z,77.31
2023-05-24T12:19:52.729Z,76.53
2023-05-24T12:20:51.723Z,76.85
2023-05-24T12:21:53.963Z,76.20
2023-05-24T12:22:51.791Z,76.27
2023-05-24T12:23:51.778Z,75.61
2023-05-24T12:24:51.848Z,74.61
2023-05-24T12:25:51.878Z,75.08
2023-05-24T12:26:51.912Z,74.70
2023-05-24T12:27:54.326Z,74.88
2023-05-24T12:28:51.890Z,73.84
2023-05-24T12:29:51.941Z,73.88
2023-05-24T12:30:51.903Z,72.96
2023-05-24T12:31:52.092Z,71.73
2023-05-24T12:32:51.943Z,70.16
2023-05-24T12:33:54.205Z,70.99
2023-05-24T12:34:52.124Z,71.45
2023-05-24T12:35:52.157Z,72.85
2023-05-24T12:36:52.150Z,73.21
2023-05-24T12:37:52.177Z,72.34
2023-05-24T12:38:52.182Z,73.65
2023-05-24T12:39:54.436Z,74.79
2023-05-24T12:41:08.248Z,75.22
2023-05-24T12:41:53.320Z,75.68
2023-05-24T12:42:52.309Z,76.06
2023-05-24T12:43:52.283Z,76.56
2023-05-24T12:44:52.260Z,75.66
2023-05-24T12:45:54.283Z,75.70
2023-05-24T12:46:52.279Z,76.07
2023-05-24T12:47:52.300Z,75.42
2023-05-24T12:48:52.258Z,76.21
2023-05-24T12:49:53.291Z,75.89
2023-05-24T12:50:52.255Z,75.33
2023-05-24T12:51:52.261Z,74.56
2023-05-24T12:52:52.293Z,74.38
2023-05-24T12:53:52.335Z,75.23
2023-05-24T12:54:52.393Z,75.26
2023-05-24T12:55:52.449Z,72.35
2023-05-24T12:56:55.576Z,73.93